createdAt,value
2023-01-08T00:52:36.004Z,58.20
2023-01-08T01:23:05.022Z,51.00
2023-01-08T01:48:28.507Z,46.47
2023-01-08T02:13:21.653Z,46.00
2023-01-08T02:34:05.528Z,36.53
2023-01-08T03:29:57.117Z,24.50
2023-01-08T04:05:18.037Z,24.33
2023-01-08T04:35:15.689Z,19.13
2023-01-08T04:56:04.969Z,24.03
2023-01-08T05:21:32.731Z,20.10
2023-01-08T05:57:12.718Z,19.87
2023-01-08T06:01:27.242Z,20.90
2023-01-08T06:27:31.477Z,17.53
2023-01-08T07:08:01.924Z,20.70
2023-01-08T07:38:16.624Z,21.40
2023-01-08T08:13:18.335Z,19.00
2023-01-08T08:39:04.008Z,20.07
2023-01-08T09:24:44.947Z,20.83
2023-01-08T09:59:51.586Z,21.80
2023-01-08T11:05:43.775Z,26.70
2023-01-08T11:26:25.689Z,24.27
2023-01-08T11:56:41.245Z,27.23
2023-01-08T12:47:47.655Z,26.80
2023-01-08T13:13:08.402Z,28.73
2023-01-08T14:08:53.175Z,32.37
2023-01-08T14:43:50.429Z,33.97
2023-01-08T16:25:18.165Z,37.17
2023-01-08T16:45:52.740Z,32.27
2023-01-08T17:16:21.783Z,38.77
2023-01-08T18:06:32.938Z,39.23
2023-01-08T18:36:59.496Z,40.80
2023-01-08T18:57:20.035Z,36.23
2023-01-08T19:17:54.479Z,40.60
2023-01-08T19:47:57.985Z,43.13
2023-01-08T20:08:54.485Z,44.37
2023-01-08T20:44:28.153Z,47.33
2023-01-08T20:48:48.422Z,45.50
2023-01-08T21:14:52.549Z,50.57
2023-01-08T21:49:40.957Z,51.13
2023-01-08T22:15:38.740Z,51.80
2023-01-08T22:50:34.383Z,46.80
2023-01-08T23:16:25.284Z,57.67
2023-01-08T23:41:42.351Z,54.73
